createdAt,value
2018-01-07T00:01:37.501Z,101495.62
2018-01-07T00:04:05.013Z,101497.42
2018-01-07T00:06:32.516Z,101511.55
2018-01-07T00:09:00.030Z,101510.67
2018-01-07T00:11:27.577Z,101519.97
2018-01-07T00:13:55.084Z,101527.92
2018-01-07T00:16:22.605Z,101523.99
2018-01-07T00:18:50.124Z,101534.16
2018-01-07T00:21:17.641Z,101532.41
2018-01-07T00:23:45.157Z,101535.51
2018-01-07T00:26:12.665Z,101544.83
2018-01-07T00:28:40.194Z,101547.03
2018-01-07T00:31:07.720Z,101546.17
2018-01-07T00:33:35.272Z,101552.80
2018-01-07T00:36:02.789Z,101555.90
2018-01-07T00:38:30.293Z,101556.34
2018-01-07T00:40:57.798Z,101550.61
2018-01-07T00:43:25.315Z,101566.11
2018-01-07T00:45:52.819Z,101567.86
2018-01-07T00:48:20.448Z,101579.37
2018-01-07T00:50:47.953Z,101578.52
2018-01-07T00:53:15.477Z,101582.50
2018-01-07T00:55:43.000Z,101585.20
2018-01-07T00:58:10.509Z,101583.40
2018-01-07T01:00:38.030Z,101563.45
2018-01-07T01:03:05.589Z,101581.20
2018-01-07T01:05:33.092Z,101588.23
2018-01-07T01:08:00.600Z,101591.34
2018-01-07T01:10:28.113Z,101600.25
2018-01-07T01:12:55.665Z,101609.52
2018-01-07T01:15:23.178Z,101616.19
2018-01-07T01:17:50.689Z,101617.53
2018-01-07T01:20:18.210Z,101628.57
2018-01-07T01:22:45.754Z,101624.19
2018-01-07T01:25:13.316Z,101635.26
2018-01-07T01:27:40.829Z,101630.84
2018-01-07T01:30:08.328Z,101642.77
2018-01-07T01:32:35.849Z,101644.55
2018-01-07T01:35:03.454Z,101654.30
2018-01-07T01:37:30.961Z,101660.94
2018-01-07T01:39:58.468Z,101668.46
2018-01-07T01:42:26.030Z,101671.98
2018-01-07T01:44:53.589Z,101677.73
2018-01-07T01:47:21.100Z,101674.66
2018-01-07T01:49:48.719Z,101686.58
2018-01-07T01:52:16.220Z,101689.70
2018-01-07T01:54:43.737Z,101687.92
2018-01-07T01:57:11.236Z,101687.92
2018-01-07T01:59:38.740Z,101691.03
2018-01-07T02:02:06.243Z,101702.51
2018-01-07T02:04:33.756Z,101710.92
2018-01-07T02:07:01.281Z,101709.60
2018-01-07T02:09:28.793Z,101707.83
2018-01-07T02:11:56.341Z,101713.58
2018-01-07T02:14:23.842Z,101724.20
2018-01-07T02:16:51.336Z,101725.96
2018-01-07T02:19:18.866Z,101732.17
2018-01-07T02:21:47.013Z,101732.18
2018-01-07T02:24:14.516Z,101728.18
2018-01-07T02:26:42.034Z,101738.81
2018-01-07T02:29:09.548Z,101733.92
2018-01-07T02:31:37.128Z,101742.33
2018-01-07T02:34:04.641Z,101752.08
2018-01-07T02:36:32.245Z,101755.62
2018-01-07T02:38:59.768Z,101762.68
2018-01-07T02:41:27.281Z,101767.09
2018-01-07T02:43:54.805Z,101772.86
2018-01-07T02:46:22.364Z,101773.74
2018-01-07T02:48:49.889Z,101773.33
2018-01-07T02:51:17.397Z,101780.38
2018-01-07T02:53:44.899Z,101779.05
2018-01-07T02:56:12.409Z,101783.48
2018-01-07T02:58:39.930Z,101788.78
2018-01-07T03:01:07.459Z,101791.45
2018-01-07T03:03:34.969Z,101796.75
2018-01-07T03:06:02.480Z,101798.09
2018-01-07T03:08:30.027Z,101794.97
2018-01-07T03:10:57.585Z,101813.98
2018-01-07T03:13:25.084Z,101817.50
2018-01-07T03:15:52.612Z,101817.92
2018-01-07T03:18:20.113Z,101821.94
2018-01-07T03:20:47.656Z,101834.77
2018-01-07T03:23:15.169Z,101834.27
2018-01-07T03:25:42.678Z,101845.34
2018-01-07T03:28:10.181Z,101840.91
2018-01-07T03:30:37.723Z,101848.02
2018-01-07T03:33:05.244Z,101855.94
2018-01-07T03:35:32.757Z,101856.38
2018-01-07T03:38:00.320Z,101866.55
2018-01-07T03:40:27.894Z,101863.86
2018-01-07T03:42:55.470Z,101868.29
2018-01-07T03:45:22.972Z,101881.11
2018-01-07T03:47:50.568Z,101883.30
2018-01-07T03:50:18.068Z,101890.41
2018-01-07T03:52:45.568Z,101896.11
2018-01-07T03:55:13.090Z,101900.55
2018-01-07T03:57:40.618Z,101909.41
2018-01-07T04:00:08.129Z,101912.92
2018-01-07T04:02:35.661Z,101912.45
2018-01-07T04:05:03.160Z,101912.47
2018-01-07T04:07:30.705Z,101919.52
2018-01-07T04:09:58.223Z,101911.08
2018-01-07T04:12:25.726Z,101929.23
2018-01-07T04:14:53.240Z,101938.06
2018-01-07T04:17:20.772Z,101945.58
2018-01-07T04:19:48.268Z,101941.55
2018-01-07T04:22:15.907Z,101952.58
2018-01-07T04:24:43.424Z,101953.92
2018-01-07T04:27:10.936Z,101947.75
2018-01-07T04:29:38.456Z,101949.05
2018-01-07T04:32:06.010Z,101956.50
2018-01-07T04:34:33.603Z,101963.55
2018-01-07T04:37:01.100Z,101973.29
2018-01-07T04:39:28.608Z,101977.27
2018-01-07T04:41:56.190Z,101977.27
2018-01-07T04:44:23.717Z,101980.74
2018-01-07T04:46:51.230Z,101986.52
2018-01-07T04:49:18.733Z,101995.35
2018-01-07T04:51:46.287Z,101998.00
2018-01-07T04:54:13.849Z,101994.44
2018-01-07T04:56:41.377Z,101991.72
2018-01-07T04:59:08.909Z,102010.78
2018-01-07T05:01:36.429Z,102008.10
2018-01-07T05:04:03.988Z,102012.96
2018-01-07T05:06:31.510Z,102015.58
2018-01-07T05:08:59.029Z,102015.98
2018-01-07T05:11:26.600Z,102028.36
2018-01-07T05:13:54.132Z,102037.16
2018-01-07T05:16:21.645Z,102038.84
2018-01-07T05:18:49.145Z,102047.27
2018-01-07T05:21:16.661Z,102055.66
2018-01-07T05:23:44.185Z,102057.88
2018-01-07T05:26:11.689Z,102065.82
2018-01-07T05:28:39.314Z,102066.19
2018-01-07T05:31:06.831Z,102069.31
2018-01-07T05:33:34.359Z,102085.17
2018-01-07T05:36:01.973Z,102083.41
2018-01-07T05:38:29.533Z,102091.76
2018-01-07T05:40:57.032Z,102097.98
2018-01-07T05:43:24.540Z,102101.95
2018-01-07T05:45:52.105Z,102109.86
2018-01-07T05:48:19.612Z,102106.81
2018-01-07T05:50:47.168Z,102109.86
2018-01-07T05:53:14.665Z,102119.93
2018-01-07T05:55:42.167Z,102123.55
2018-01-07T05:58:09.686Z,102129.73
2018-01-07T06:00:37.274Z,102130.16
2018-01-07T06:03:04.782Z,102139.84
2018-01-07T06:05:32.394Z,102149.95
2018-01-07T06:07:59.969Z,102153.97
2018-01-07T06:10:27.486Z,102156.88
2018-01-07T06:12:55.082Z,102162.55
2018-01-07T06:15:22.595Z,102173.20
2018-01-07T06:17:50.105Z,102174.42
2018-01-07T06:20:17.612Z,102171.33
2018-01-07T06:22:45.144Z,102188.25
2018-01-07T06:25:12.666Z,102186.37
2018-01-07T06:27:40.178Z,102204.59
2018-01-07T06:30:07.697Z,102205.80
2018-01-07T06:32:35.254Z,102215.95
2018-01-07T06:35:02.812Z,102218.56
2018-01-07T06:37:30.337Z,102226.52
2018-01-07T06:39:57.863Z,102237.21
2018-01-07T06:42:25.517Z,102233.13
2018-01-07T06:44:53.047Z,102234.00
2018-01-07T06:47:20.578Z,102243.27
2018-01-07T06:49:48.102Z,102248.17
2018-01-07T06:52:15.627Z,102251.22
2018-01-07T06:54:43.200Z,102257.78
2018-01-07T06:57:10.716Z,102265.72
2018-01-07T06:59:38.330Z,102268.81
2018-01-07T07:02:05.858Z,102274.98
2018-01-07T07:04:33.436Z,102278.46
2018-01-07T07:07:00.944Z,102276.33
2018-01-07T07:09:28.441Z,102275.99
2018-01-07T07:11:56.592Z,102289.07
2018-01-07T07:14:24.109Z,102300.09
2018-01-07T07:16:51.616Z,102303.48
2018-01-07T07:19:19.157Z,102311.45
2018-01-07T07:21:46.672Z,102331.35
2018-01-07T07:24:14.193Z,102333.93
2018-01-07T07:26:41.701Z,102350.21
2018-01-07T07:29:09.203Z,102351.46
2018-01-07T07:31:36.710Z,102352.41
2018-01-07T07:34:04.218Z,102344.98
2018-01-07T07:36:31.725Z,102358.28
2018-01-07T07:38:59.276Z,102382.19
2018-01-07T07:41:26.836Z,102390.63
2018-01-07T07:43:54.337Z,102383.81
2018-01-07T07:46:21.835Z,102397.48
2018-01-07T07:48:49.409Z,102403.75
2018-01-07T07:51:16.969Z,102405.65
2018-01-07T07:53:44.487Z,102405.20
2018-01-07T07:56:12.088Z,102407.70
2018-01-07T07:58:39.650Z,102406.77
2018-01-07T08:01:07.167Z,102416.08
2018-01-07T08:03:34.778Z,102427.00
2018-01-07T08:06:02.315Z,102432.20
2018-01-07T08:08:29.844Z,102440.66
2018-01-07T08:10:57.362Z,102447.73
2018-01-07T08:13:24.877Z,102451.78
2018-01-07T08:15:52.470Z,102448.62
2018-01-07T08:18:19.977Z,102435.06
2018-01-07T08:20:47.524Z,102428.95
2018-01-07T08:23:15.041Z,102424.49
2018-01-07T08:25:42.559Z,102420.88
2018-01-07T08:28:10.069Z,102426.45
2018-01-07T08:30:37.577Z,102430.89
2018-01-07T08:33:05.090Z,102439.34
2018-01-07T08:35:32.620Z,102445.14
2018-01-07T08:38:00.190Z,102447.14
2018-01-07T08:40:27.766Z,102457.86
2018-01-07T08:42:55.401Z,102463.89
2018-01-07T08:45:22.912Z,102468.92
2018-01-07T08:47:50.429Z,102468.98
2018-01-07T08:50:17.949Z,102463.75
2018-01-07T08:52:45.565Z,102472.30
2018-01-07T08:55:13.118Z,102473.47
2018-01-07T08:57:40.640Z,102486.91
2018-01-07T09:00:08.148Z,102490.97
2018-01-07T09:02:35.662Z,102489.05
2018-01-07T09:05:03.189Z,102500.09
2018-01-07T09:07:30.705Z,102500.03
2018-01-07T09:09:58.213Z,102506.78
2018-01-07T09:12:25.732Z,102513.91
2018-01-07T09:14:53.322Z,102516.59
2018-01-07T09:17:20.831Z,102523.86
2018-01-07T09:19:48.417Z,102536.66
2018-01-07T09:22:15.933Z,102539.46
2018-01-07T09:24:43.459Z,102532.67
2018-01-07T09:27:10.990Z,102537.09
2018-01-07T09:29:38.554Z,102542.98
2018-01-07T09:32:06.069Z,102542.49
2018-01-07T09:34:33.613Z,102542.27
2018-01-07T09:37:01.133Z,102556.47
2018-01-07T09:39:28.665Z,102553.61
2018-01-07T09:41:56.176Z,102554.39
2018-01-07T09:44:23.689Z,102545.58
2018-01-07T09:46:51.271Z,102555.50
2018-01-07T09:49:18.777Z,102560.52
2018-01-07T09:51:46.299Z,102566.52
2018-01-07T09:54:13.804Z,102565.97
2018-01-07T09:56:41.332Z,102574.14
2018-01-07T09:59:08.862Z,102577.88
2018-01-07T10:01:36.409Z,102575.16
2018-01-07T10:04:03.974Z,102563.59
2018-01-07T10:06:31.558Z,102567.05
2018-01-07T10:08:59.072Z,102581.35
2018-01-07T10:11:26.585Z,102584.59
2018-01-07T10:13:54.104Z,102583.05
2018-01-07T10:16:21.606Z,102594.66
2018-01-07T10:18:49.113Z,102593.64
2018-01-07T10:21:16.683Z,102599.54
2018-01-07T10:23:44.273Z,102601.45
2018-01-07T10:26:11.767Z,102601.51
2018-01-07T10:28:39.278Z,102595.31
2018-01-07T10:31:06.790Z,102606.45
2018-01-07T10:33:34.336Z,102610.49
2018-01-07T10:36:01.855Z,102625.28
2018-01-07T10:38:29.378Z,102627.80
2018-01-07T10:40:56.965Z,102645.55
2018-01-07T10:43:24.499Z,102643.77
2018-01-07T10:45:52.028Z,102641.86
2018-01-07T10:48:19.640Z,102641.81
2018-01-07T10:50:47.155Z,102642.59
2018-01-07T10:53:14.677Z,102647.17
2018-01-07T10:55:42.195Z,102650.71
2018-01-07T10:58:09.697Z,102655.43
2018-01-07T11:00:42.887Z,102648.88
2018-01-07T11:03:10.425Z,102649.31
2018-01-07T11:05:38.745Z,102651.26
2018-01-07T11:08:06.368Z,102651.64
2018-01-07T11:10:33.938Z,102654.91
2018-01-07T11:13:01.440Z,102657.63
2018-01-07T11:15:28.957Z,102653.92
2018-01-07T11:17:56.478Z,102665.65
2018-01-07T11:20:23.989Z,102659.53
2018-01-07T11:22:51.494Z,102656.77
2018-01-07T11:25:19.003Z,102645.14
2018-01-07T11:27:46.504Z,102638.77
2018-01-07T11:30:14.290Z,102650.66
2018-01-07T11:32:42.754Z,102658.41
2018-01-07T11:35:10.284Z,102661.86
2018-01-07T11:37:37.802Z,102657.69
2018-01-07T11:40:05.305Z,102649.67
2018-01-07T11:42:32.804Z,102653.53
2018-01-07T11:45:00.322Z,102648.58
2018-01-07T11:47:27.941Z,102647.16
2018-01-07T11:49:55.522Z,102645.11
2018-01-07T11:52:23.023Z,102654.91
2018-01-07T11:54:50.535Z,102655.79
2018-01-07T11:57:18.045Z,102662.05
2018-01-07T11:59:45.585Z,102653.63
2018-01-07T12:02:13.205Z,102660.19
2018-01-07T12:04:40.709Z,102652.47
2018-01-07T12:07:08.224Z,102661.31
2018-01-07T12:09:35.779Z,102660.41
2018-01-07T12:12:03.341Z,102661.59
2018-01-07T12:14:30.848Z,102659.38
2018-01-07T12:16:58.492Z,102657.27
2018-01-07T12:19:26.007Z,102650.19
2018-01-07T12:21:53.546Z,102659.47
2018-01-07T12:24:21.155Z,102658.06
2018-01-07T12:26:49.450Z,102665.20
2018-01-07T12:29:16.961Z,102661.52
2018-01-07T12:31:44.533Z,102654.68
2018-01-07T12:34:12.037Z,102659.70
2018-01-07T12:36:39.658Z,102664.19
2018-01-07T12:39:07.847Z,102668.39
2018-01-07T12:41:35.385Z,102671.39
2018-01-07T12:44:02.892Z,102674.14
2018-01-07T12:46:30.393Z,102666.47
2018-01-07T12:48:57.964Z,102673.77
2018-01-07T12:51:25.474Z,102669.12
2018-01-07T12:53:52.985Z,102674.36
2018-01-07T12:56:20.484Z,102664.61
2018-01-07T12:58:47.991Z,102666.59
2018-01-07T13:01:15.503Z,102665.06
2018-01-07T13:03:43.018Z,102668.14
2018-01-07T13:06:10.591Z,102679.70
2018-01-07T13:08:38.478Z,102684.77
2018-01-07T13:11:06.022Z,102679.02
2018-01-07T13:13:33.582Z,102676.22
2018-01-07T13:16:01.112Z,102674.93
2018-01-07T13:18:28.620Z,102678.55
2018-01-07T13:20:56.154Z,102672.66
2018-01-07T13:23:23.817Z,102681.42
2018-01-07T13:25:51.382Z,102677.87
2018-01-07T13:28:18.909Z,102674.58
2018-01-07T13:30:46.424Z,102691.77
2018-01-07T13:33:13.933Z,102690.13
2018-01-07T13:35:41.530Z,102693.45
2018-01-07T13:38:09.059Z,102696.11
2018-01-07T13:40:36.643Z,102701.84
2018-01-07T13:43:04.166Z,102699.92
2018-01-07T13:45:31.678Z,102710.73
2018-01-07T13:47:59.273Z,102713.73
2018-01-07T13:50:26.867Z,102720.88
2018-01-07T13:52:54.374Z,102724.41
2018-01-07T13:55:21.896Z,102728.74
2018-01-07T13:57:49.408Z,102732.63
2018-01-07T14:00:16.945Z,102738.09
2018-01-07T14:02:44.556Z,102743.47
2018-01-07T14:05:12.136Z,102745.78
2018-01-07T14:07:39.676Z,102741.55
2018-01-07T14:10:07.251Z,102748.77
2018-01-07T14:12:34.757Z,102755.39
2018-01-07T14:15:02.262Z,102753.45
2018-01-07T14:17:29.777Z,102760.00
2018-01-07T14:19:57.293Z,102764.65
2018-01-07T14:22:24.811Z,102770.11
2018-01-07T14:24:52.309Z,102763.38
2018-01-07T14:27:19.833Z,102771.55
2018-01-07T14:29:47.339Z,102777.97
2018-01-07T14:32:14.853Z,102773.14
2018-01-07T14:34:42.414Z,102779.64
2018-01-07T14:37:09.945Z,102779.47
2018-01-07T14:39:37.456Z,102779.91
2018-01-07T14:42:04.982Z,102784.77
2018-01-07T14:44:32.522Z,102782.17
2018-01-07T14:47:00.044Z,102780.66
2018-01-07T14:49:27.569Z,102779.69
2018-01-07T14:51:55.072Z,102784.66
2018-01-07T14:54:22.585Z,102791.84
2018-01-07T14:56:50.100Z,102783.47
2018-01-07T14:59:17.601Z,102789.08
2018-01-07T15:01:45.105Z,102789.63
2018-01-07T15:04:12.625Z,102788.95
2018-01-07T15:06:40.211Z,102790.55
2018-01-07T15:09:07.729Z,102798.42
2018-01-07T15:11:35.237Z,102802.84
2018-01-07T15:14:02.780Z,102801.34
2018-01-07T15:16:30.306Z,102805.71
2018-01-07T15:18:57.821Z,102809.23
2018-01-07T15:21:25.372Z,102812.67
2018-01-07T15:23:52.914Z,102827.22
2018-01-07T15:26:20.494Z,102817.77
2018-01-07T15:28:48.051Z,102821.01
2018-01-07T15:31:15.569Z,102825.80
2018-01-07T15:33:43.108Z,102837.75
2018-01-07T15:36:10.622Z,102825.33
2018-01-07T15:38:38.140Z,102834.45
2018-01-07T15:41:05.652Z,102835.22
2018-01-07T15:43:33.169Z,102829.85
2018-01-07T15:46:00.673Z,102826.84
2018-01-07T15:48:28.180Z,102827.64
2018-01-07T15:50:55.719Z,102831.58
2018-01-07T15:53:23.310Z,102830.05
2018-01-07T15:55:50.897Z,102844.05
2018-01-07T15:58:18.413Z,102826.44
2018-01-07T16:00:45.954Z,102839.64
2018-01-07T16:03:13.470Z,102839.66
2018-01-07T16:05:40.993Z,102853.40
2018-01-07T16:08:08.530Z,102841.82
2018-01-07T16:10:36.034Z,102837.88
2018-01-07T16:13:03.547Z,102846.63
2018-01-07T16:15:31.045Z,102851.36
2018-01-07T16:17:58.564Z,102857.52
2018-01-07T16:20:26.080Z,102849.09
2018-01-07T16:22:53.609Z,102853.95
2018-01-07T16:25:21.129Z,102853.89
2018-01-07T16:27:48.630Z,102856.91
2018-01-07T16:30:16.136Z,102854.64
2018-01-07T16:32:43.646Z,102855.84
2018-01-07T16:35:11.180Z,102855.88
2018-01-07T16:37:38.692Z,102857.23
2018-01-07T16:40:06.210Z,102862.70
2018-01-07T16:42:33.726Z,102875.92
2018-01-07T16:45:01.289Z,102865.98
2018-01-07T16:47:28.798Z,102873.38
2018-01-07T16:49:56.313Z,102873.20
2018-01-07T16:52:23.845Z,102874.97
2018-01-07T16:54:51.362Z,102876.52
2018-01-07T16:57:18.993Z,102877.96
2018-01-07T16:59:46.541Z,102876.07
2018-01-07T17:02:14.050Z,102878.16
2018-01-07T17:04:41.558Z,102872.41
2018-01-07T17:07:09.069Z,102880.36
2018-01-07T17:09:36.603Z,102884.75
2018-01-07T17:12:04.108Z,102886.41
2018-01-07T17:14:31.619Z,102884.71
2018-01-07T17:16:59.240Z,102886.91
2018-01-07T17:19:26.756Z,102885.11
2018-01-07T17:21:54.261Z,102896.78
2018-01-07T17:24:21.768Z,102894.14
2018-01-07T17:26:49.289Z,102901.34
2018-01-07T17:29:16.854Z,102890.63
2018-01-07T17:31:44.412Z,102903.31
2018-01-07T17:34:11.921Z,102911.11
2018-01-07T17:36:39.471Z,102907.66
2018-01-07T17:39:06.973Z,102902.25
2018-01-07T17:41:34.499Z,102904.36
2018-01-07T17:44:02.034Z,102906.46
2018-01-07T17:46:29.553Z,102906.41
2018-01-07T17:48:57.061Z,102910.55
2018-01-07T17:51:24.667Z,102914.05
2018-01-07T17:53:52.183Z,102916.95
2018-01-07T17:56:19.700Z,102914.19
2018-01-07T17:58:47.201Z,102908.38
2018-01-07T18:01:14.788Z,102915.38
2018-01-07T18:03:42.305Z,102918.77
2018-01-07T18:06:09.816Z,102917.16
2018-01-07T18:08:37.355Z,102913.59
2018-01-07T18:11:04.880Z,102916.94
2018-01-07T18:13:32.377Z,102920.45
2018-01-07T18:15:59.928Z,102922.64
2018-01-07T18:18:27.476Z,102925.34
2018-01-07T18:20:55.089Z,102926.30
2018-01-07T18:23:22.648Z,102925.97
2018-01-07T18:25:50.176Z,102922.28
2018-01-07T18:28:17.769Z,102929.95
2018-01-07T18:30:45.279Z,102931.24
2018-01-07T18:33:12.785Z,102940.81
2018-01-07T18:35:40.315Z,102924.20
2018-01-07T18:38:07.912Z,102924.09
2018-01-07T18:40:35.433Z,102925.77
2018-01-07T18:43:02.963Z,102923.55
2018-01-07T18:45:30.585Z,102932.72
2018-01-07T18:47:58.085Z,102939.66
2018-01-07T18:50:25.605Z,102933.95
2018-01-07T18:52:53.146Z,102929.98
2018-01-07T18:55:20.731Z,102940.12
2018-01-07T18:57:48.246Z,102940.95
2018-01-07T19:00:15.768Z,102944.08
2018-01-07T19:02:43.270Z,102941.84
2018-01-07T19:05:10.789Z,102943.61
2018-01-07T19:07:38.313Z,102942.20
2018-01-07T19:10:05.872Z,102937.44
2018-01-07T19:12:33.380Z,102946.11
2018-01-07T19:15:00.878Z,102948.72
2018-01-07T19:17:28.446Z,102953.55
2018-01-07T19:19:56.014Z,102965.66
2018-01-07T19:22:23.543Z,102961.23
2018-01-07T19:24:51.136Z,102959.13
2018-01-07T19:27:18.646Z,102963.02
2018-01-07T19:29:46.257Z,102961.61
2018-01-07T19:32:13.881Z,102966.37
2018-01-07T19:34:41.411Z,102973.29
2018-01-07T19:37:09.078Z,102968.50
2018-01-07T19:39:36.582Z,102971.08
2018-01-07T19:42:04.101Z,102977.09
2018-01-07T19:44:31.609Z,102970.85
2018-01-07T19:46:59.182Z,102978.72
2018-01-07T19:49:26.743Z,102981.35
2018-01-07T19:51:54.309Z,102981.73
2018-01-07T19:54:21.854Z,102982.67
2018-01-07T19:56:49.358Z,102983.95
2018-01-07T19:59:16.864Z,102980.30
2018-01-07T20:01:44.416Z,102989.65
2018-01-07T20:04:11.937Z,102985.08
2018-01-07T20:06:39.575Z,102987.72
2018-01-07T20:09:07.104Z,102986.42
2018-01-07T20:11:34.681Z,102991.89
2018-01-07T20:14:02.193Z,102990.23
2018-01-07T20:16:29.814Z,102999.89
2018-01-07T20:18:57.360Z,102997.59
2018-01-07T20:21:24.913Z,102996.28
2018-01-07T20:23:52.434Z,103001.41
2018-01-07T20:26:19.980Z,103007.53
2018-01-07T20:28:47.487Z,103011.56
2018-01-07T20:31:14.989Z,103003.67
2018-01-07T20:33:42.631Z,103004.88
2018-01-07T20:36:10.149Z,103002.26
2018-01-07T20:38:37.674Z,103003.98
2018-01-07T20:41:05.186Z,103003.16
2018-01-07T20:43:32.694Z,103008.78
2018-01-07T20:46:00.207Z,103006.96
2018-01-07T20:48:27.713Z,103004.70
2018-01-07T20:50:55.244Z,103005.17
2018-01-07T20:53:22.760Z,103002.49
2018-01-07T20:55:50.297Z,103012.14
2018-01-07T20:58:17.822Z,103004.62
2018-01-07T21:00:45.359Z,103013.78
2018-01-07T21:03:12.921Z,103011.89
2018-01-07T21:05:40.430Z,103012.05
2018-01-07T21:08:08.641Z,103013.34
2018-01-07T21:10:36.148Z,103015.88
2018-01-07T21:13:03.658Z,103012.89
2018-01-07T21:15:31.172Z,103015.41
2018-01-07T21:17:58.808Z,103012.81
2018-01-07T21:20:26.336Z,103010.58
2018-01-07T21:22:53.929Z,103013.19
2018-01-07T21:25:21.487Z,103014.41
2018-01-07T21:27:49.017Z,103014.77
2018-01-07T21:30:16.561Z,102997.20
2018-01-07T21:32:44.092Z,103000.58
2018-01-07T21:35:11.728Z,103003.44
2018-01-07T21:37:39.258Z,103008.86
2018-01-07T21:40:06.846Z,103012.80
2018-01-07T21:42:34.406Z,103012.84
2018-01-07T21:45:01.918Z,103011.62
2018-01-07T21:47:29.527Z,103007.27
2018-01-07T21:49:57.044Z,103005.19
2018-01-07T21:52:24.601Z,103014.08
2018-01-07T21:54:52.205Z,103010.17
2018-01-07T21:57:19.709Z,103007.62
2018-01-07T21:59:59.070Z,103013.62
2018-01-07T22:02:27.583Z,103012.17
2018-01-07T22:04:58.967Z,103017.42
2018-01-07T22:07:26.489Z,103017.79
2018-01-07T22:09:54.028Z,103013.89
2018-01-07T22:12:21.614Z,103023.04
2018-01-07T22:14:49.160Z,103018.91
2018-01-07T22:17:16.677Z,103022.80
2018-01-07T22:19:44.221Z,103022.73
2018-01-07T22:22:11.848Z,103021.00
2018-01-07T22:24:39.409Z,103024.88
2018-01-07T22:27:06.939Z,103021.67
2018-01-07T22:29:34.457Z,103024.86
2018-01-07T22:32:01.972Z,103028.21
2018-01-07T22:34:29.481Z,103023.28
2018-01-07T22:36:57.008Z,103017.14
2018-01-07T22:39:24.523Z,103029.45
2018-01-07T22:41:52.041Z,103024.23
2018-01-07T22:44:19.687Z,103023.73
2018-01-07T22:46:47.212Z,103022.41
2018-01-07T22:49:14.756Z,103027.08
2018-01-07T22:51:42.276Z,103027.06
2018-01-07T22:54:09.793Z,103022.70
2018-01-07T22:56:37.318Z,103027.11
2018-01-07T22:59:04.912Z,103035.78
2018-01-07T23:01:32.432Z,103033.22
2018-01-07T23:03:59.978Z,103034.26
2018-01-07T23:06:27.490Z,103037.00
2018-01-07T23:08:55.079Z,103040.22
2018-01-07T23:11:22.638Z,103045.03
2018-01-07T23:13:50.203Z,103047.20
2018-01-07T23:16:17.763Z,103038.42
2018-01-07T23:18:45.319Z,103041.88
2018-01-07T23:21:12.841Z,103040.13
2018-01-07T23:23:40.358Z,103045.03
2018-01-07T23:26:07.885Z,103044.41
2018-01-07T23:28:35.413Z,103039.34
2018-01-07T23:31:02.950Z,103040.55
2018-01-07T23:33:30.467Z,103046.27
2018-01-07T23:35:57.985Z,103047.48
2018-01-07T23:38:25.509Z,103046.09
2018-01-07T23:40:53.029Z,103042.80
2018-01-07T23:43:20.573Z,103036.53
2018-01-07T23:45:48.095Z,103038.14
2018-01-07T23:48:15.608Z,103033.37
2018-01-07T23:50:43.189Z,103028.03
2018-01-07T23:53:10.721Z,103036.09
2018-01-07T23:55:38.277Z,103034.16
2018-01-07T23:58:05.793Z,103032.38
